Victoria, British Columbia

10:56 AM PDT on September 04, 2015 (GMT -0700)
Victoria International | | Change Station
CLOSE
Current Station
Airport
Location: Victoria,
Elevation: 62 ft
Nearby Weather Stations

Elev 62 ft 48.65 °N, 123.43 °W | Updated 56 minutes ago

Scattered Clouds
Scattered Clouds
55 °F
Feels Like 55 °F
N
6
Wind Variable Wind from West

Today is forecast to be nearly the same temperature as yesterday.

Today
High -- | Low -- °F
--% Chance of Precip.
Yesterday
High -- | Low -- °F
Precip. -- in
6:34 AM 7:49 PM
Waning Gibbous, 57% visible
Pressure 30.04 in
Visibility 30.0 miles
Clouds Few 1800 ft
Few 3000 ft
Few 16000 ft
Scattered Clouds 22000 ft
Dew Point 50 °F
Humidity 82%
Rainfall 0.00 in
Snow Depth Not available.
UV 3 out of 12
Pollen Not available.
Air Quality Not available.
Flu Activity Not available.
METAR CYYJ 041700Z 27005KT 30SM FEW018TCU FEW030 FEW160 SCT220 13/10 A3004 RMK TCU1SC1AC1CI2 TCU TR SC TR SLP171
Pressure 30.04 in
Visibility 30.0 miles
Clouds Few 1800 ft
Few 3000 ft
Few 16000 ft
Scattered Clouds 22000 ft
Dew Point 50 °F
Humidity 82%
Rainfall 0.00 in
Snow Depth Not available.
UV 3 out of 12
Pollen Not available.
Air Quality Not available.
Flu Activity Not available.
METAR CYYJ 041700Z 27005KT 30SM FEW018TCU FEW030 FEW160 SCT220 13/10 A3004 RMK TCU1SC1AC1CI2 TCU TR SC TR SLP171

10-Day Weather Forecast

×

Almanac

Astronomy

Sep. 04, 2015 Rise Set
Actual Time
Civil Twilight
Nautical Twilight
Astronomical Twilight
Moon
Length of Visible Light
Length of Day
Tomorrow will be .
, % of the Moon is Illuminated

Today's Extremes

Country Highs Country Lows

Community

WunderPhotos

Upload Photos

1,852,250 photos uploaded!

WunderBlogs® & News

Nearby

Air Quality

  Air Quality AQ Index Pollutant
Not available.

Snow Depth

Station Depth Elevation

Earthquake Activity

City Distance Mag. Time & Date
Minimum magnitude displayed is 2.5.

Coastal Water Temperatures

Place Temperature

Stations

Nearby Weather Stations

Station Location Temp. Windchill Dew Point Humidity Wind Precip. Elev Updated Type